LGEL weather

Elefsis Airport
Elefsina, Attica, Greece

Public forecast

Using degrees Celsius for public forecast. Weather courtesy of forecast.io.

METAR (pilot weather report)

Retrieved 2018/12/16 07:50 UTC (2 hours ago):

LGEL 160750Z VRB02KT 9999 FEW020 SCT070 14/10 Q1011

TAF (pilot weather forecast)

Retrieved 2018/12/16 06:12 UTC (4 hours ago):

TAF LGEL 160500Z 1606/1706 VRB05KT 8000 FEW018 BKN025 OVC070 TEMPO 1606/1615 5000 RA FEW018TCU BKN025 OVC070 BECMG 1613/1615 33010KT TEMPO 1621/1703 33010G20KT